Airfield :







YOU CAN JOIN US ON...

 
LOGIN :

Register | Disclaimer

   EN    FR    IT 

 









Legend :    VFR   Marginal VFR   IFR   Intensive IFR   Very Intensive IFR
Visi :
Ceiling :
>= 8 km
>= 3000ft
5 to 8 km
1000 to 3000 ft
1500m to 5 km
500 to 1000 ft
800 to 1500m
200 to 500 ft
< 800m
< 200 ft
Symbols :   Thunderstorms  Fog  Heavy snow  Heavy precipitations  Wind > 20 kt






- Airport Elevation : 285 ft
- IATA code : ALB


KALB - Albany International

CURRENT METAR :
  • 272351Z 16017G24KT 10SM SCT018 BKN025 BKN031 OVC250 23/19 A2969 RMK AO2 SLP054 T02330194 10250 20233 56023

EXPIRED METARs :
  • 272251Z 15011G17KT 10SM FEW065 BKN140 OVC250 24/19 A2971 RMK AO2 SLP060 T02390189
  • 272151Z 14011KT 10SM FEW065 BKN190 OVC250 24/18 A2974 RMK AO2 SLP069 T02390183

TAF KALB
Valid from the 28 at 00:00 until the 29 at 00:00 UTC


272356Z 2800/2824 17010G18KT P6SM VCSH BKN025
FM280300 18008KT P6SM VCSH OVC025
FM280900 19005KT P6SM BKN020
PROB30 2809/2815 4SM -SHRA OVC015
FM281500 27009KT P6SM BKN020
PROB30 2815/2820 4SM -SHRA OVC015
FM282000 29010G19KT P6SM BKN035
PROB30 2820/2824 4SM -SHRA OVC025
KZBW FIR / North America



MET'MAP, your aeronautical weather chart ! - Copyright ORBIFLY December 2007 - Disclaimer

ORBIFLY MET'MAP TEAM :

Programming & Development : Alexandra Zaïnal
Original concept : Baudouin d'Aumeries
Technical & hardware support : Manuel Goepfert
Assistance : Marc-Olivier Méhu

Contact : metmap@orbifly.com




SOURCES & CREDITS :

   NOAA